sensor_id;sensor_type;location;lat;lon;timestamp;temperature;humidity
47382;DHT22;33128;51.580;5.170;2023-02-11T00:00:14;8.80;99.90
47382;DHT22;33128;51.580;5.170;2023-02-11T00:02:40;8.90;99.90
47382;DHT22;33128;51.580;5.170;2023-02-11T00:05:05;8.80;99.90
47382;DHT22;33128;51.580;5.170;2023-02-11T00:07:32;8.90;99.90
47382;DHT22;33128;51.580;5.170;2023-02-11T00:09:58;8.80;99.90
47382;DHT22;33128;51.580;5.170;2023-02-11T00:12:24;8.60;99.90
47382;DHT22;33128;51.580;5.170;2023-02-11T00:14:50;8.60;99.90
47382;DHT22;33128;51.580;5.170;2023-02-11T00:17:16;8.70;99.90
47382;DHT22;33128;51.580;5.170;2023-02-11T00:19:41;8.80;99.90
47382;DHT22;33128;51.580;5.170;2023-02-11T00:22:07;8.70;99.90
47382;DHT22;33128;51.580;5.170;2023-02-11T00:24:32;8.80;99.90
47382;DHT22;33128;51.580;5.170;2023-02-11T00:26:58;8.70;99.90
47382;DHT22;33128;51.580;5.170;2023-02-11T00:29:23;8.60;99.90
47382;DHT22;33128;51.580;5.170;2023-02-11T00:31:49;8.60;99.90
47382;DHT22;33128;51.580;5.170;2023-02-11T00:34:15;8.70;99.90
47382;DHT22;33128;51.580;5.170;2023-02-11T00:36:41;8.80;99.90
47382;DHT22;33128;51.580;5.170;2023-02-11T00:39:07;8.70;99.90
47382;DHT22;33128;51.580;5.170;2023-02-11T00:41:33;8.70;99.90
47382;DHT22;33128;51.580;5.170;2023-02-11T00:43:59;8.50;99.90
47382;DHT22;33128;51.580;5.170;2023-02-11T00:46:25;8.50;99.90
47382;DHT22;33128;51.580;5.170;2023-02-11T00:48:51;8.70;99.90
47382;DHT22;33128;51.580;5.170;2023-02-11T00:51:19;8.70;99.90
47382;DHT22;33128;51.580;5.170;2023-02-11T00:53:45;8.60;99.90
47382;DHT22;33128;51.580;5.170;2023-02-11T00:56:10;8.50;99.90
47382;DHT22;33128;51.580;5.170;2023-02-11T00:58:36;8.60;99.90
47382;DHT22;33128;51.580;5.170;2023-02-11T01:01:03;8.60;99.90
47382;DHT22;33128;51.580;5.170;2023-02-11T01:03:29;8.60;99.90
47382;DHT22;33128;51.580;5.170;2023-02-11T01:05:55;8.70;99.90
47382;DHT22;33128;51.580;5.170;2023-02-11T01:08:20;8.70;99.90
47382;DHT22;33128;51.580;5.170;2023-02-11T01:11:09;8.60;99.90
47382;DHT22;33128;51.580;5.170;2023-02-11T01:13:36;8.50;99.90
47382;DHT22;33128;51.580;5.170;2023-02-11T01:16:04;8.50;99.90
47382;DHT22;33128;51.580;5.170;2023-02-11T01:18:31;8.30;99.90
47382;DHT22;33128;51.580;5.170;2023-02-11T01:21:00;8.40;99.90
47382;DHT22;33128;51.580;5.170;2023-02-11T01:23:25;8.50;99.90
47382;DHT22;33128;51.580;5.170;2023-02-11T01:25:51;8.60;99.90
47382;DHT22;33128;51.580;5.170;2023-02-11T01:28:22;8.50;99.90
47382;DHT22;33128;51.580;5.170;2023-02-11T01:30:49;8.40;99.90
47382;DHT22;33128;51.580;5.170;2023-02-11T01:33:15;8.50;99.90
47382;DHT22;33128;51.580;5.170;2023-02-11T01:35:42;8.60;99.90
47382;DHT22;33128;51.580;5.170;2023-02-11T01:38:14;8.50;99.90
47382;DHT22;33128;51.580;5.170;2023-02-11T01:40:45;8.60;99.90
47382;DHT22;33128;51.580;5.170;2023-02-11T01:43:10;8.40;99.90
47382;DHT22;33128;51.580;5.170;2023-02-11T01:48:25;8.40;99.90
47382;DHT22;33128;51.580;5.170;2023-02-11T01:50:56;8.40;99.90
47382;DHT22;33128;51.580;5.170;2023-02-11T01:53:24;8.50;99.90
47382;DHT22;33128;51.580;5.170;2023-02-11T01:56:09;8.40;99.90
47382;DHT22;33128;51.580;5.170;2023-02-11T01:58:58;8.50;99.90
47382;DHT22;33128;51.580;5.170;2023-02-11T02:01:29;8.40;99.90
47382;DHT22;33128;51.580;5.170;2023-02-11T02:04:00;8.50;99.90
47382;DHT22;33128;51.580;5.170;2023-02-11T02:06:54;8.50;99.90
47382;DHT22;33128;51.580;5.170;2023-02-11T02:09:22;8.50;99.90
47382;DHT22;33128;51.580;5.170;2023-02-11T02:11:50;8.50;99.90
47382;DHT22;33128;51.580;5.170;2023-02-11T02:14:16;8.50;99.90
47382;DHT22;33128;51.580;5.170;2023-02-11T02:16:42;8.50;99.90
47382;DHT22;33128;51.580;5.170;2023-02-11T02:22:22;8.40;99.90
47382;DHT22;33128;51.580;5.170;2023-02-11T02:38:25;8.20;99.90
47382;DHT22;33128;51.580;5.170;2023-02-11T02:41:02;8.20;99.90
47382;DHT22;33128;51.580;5.170;2023-02-11T02:43:29;8.30;99.90
47382;DHT22;33128;51.580;5.170;2023-02-11T02:46:27;8.30;99.90
47382;DHT22;33128;51.580;5.170;2023-02-11T02:48:54;8.30;99.90
47382;DHT22;33128;51.580;5.170;2023-02-11T02:51:41;8.10;99.90
47382;DHT22;33128;51.580;5.170;2023-02-11T03:08:04;7.80;99.90
47382;DHT22;33128;51.580;5.170;2023-02-11T03:10:39;7.70;99.90
47382;DHT22;33128;51.580;5.170;2023-02-11T03:13:06;7.70;99.90
47382;DHT22;33128;51.580;5.170;2023-02-11T03:15:37;8.00;99.90
47382;DHT22;33128;51.580;5.170;2023-02-11T03:18:04;7.90;99.90
47382;DHT22;33128;51.580;5.170;2023-02-11T03:20:35;7.90;99.90
47382;DHT22;33128;51.580;5.170;2023-02-11T03:23:07;7.90;99.90
47382;DHT22;33128;51.580;5.170;2023-02-11T03:25:38;7.90;99.90
47382;DHT22;33128;51.580;5.170;2023-02-11T03:33:35;8.10;99.90
47382;DHT22;33128;51.580;5.170;2023-02-11T03:36:03;8.00;99.90
47382;DHT22;33128;51.580;5.170;2023-02-11T03:38:33;8.20;99.90
47382;DHT22;33128;51.580;5.170;2023-02-11T03:41:00;8.10;99.90
47382;DHT22;33128;51.580;5.170;2023-02-11T03:43:48;8.10;99.90
47382;DHT22;33128;51.580;5.170;2023-02-11T03:46:18;8.20;99.90
47382;DHT22;33128;51.580;5.170;2023-02-11T03:48:48;8.10;99.90
47382;DHT22;33128;51.580;5.170;2023-02-11T03:51:16;8.10;99.90
47382;DHT22;33128;51.580;5.170;2023-02-11T03:53:43;8.00;99.90
47382;DHT22;33128;51.580;5.170;2023-02-11T03:56:14;8.00;99.90
47382;DHT22;33128;51.580;5.170;2023-02-11T03:58:43;8.10;99.90
47382;DHT22;33128;51.580;5.170;2023-02-11T04:01:12;7.70;99.90
47382;DHT22;33128;51.580;5.170;2023-02-11T04:03:38;7.80;99.90
47382;DHT22;33128;51.580;5.170;2023-02-11T04:06:04;7.90;99.90
47382;DHT22;33128;51.580;5.170;2023-02-11T04:08:30;7.90;99.90
47382;DHT22;33128;51.580;5.170;2023-02-11T04:10:57;8.10;99.90
47382;DHT22;33128;51.580;5.170;2023-02-11T04:13:23;8.00;99.90
47382;DHT22;33128;51.580;5.170;2023-02-11T04:15:48;8.10;99.90
47382;DHT22;33128;51.580;5.170;2023-02-11T04:18:14;8.10;99.90
47382;DHT22;33128;51.580;5.170;2023-02-11T04:20:40;8.10;99.90
47382;DHT22;33128;51.580;5.170;2023-02-11T04:23:05;8.00;99.90
47382;DHT22;33128;51.580;5.170;2023-02-11T04:25:31;8.10;99.90
47382;DHT22;33128;51.580;5.170;2023-02-11T04:27:59;8.10;99.90
47382;DHT22;33128;51.580;5.170;2023-02-11T04:30:24;8.10;99.90
47382;DHT22;33128;51.580;5.170;2023-02-11T04:32:50;8.00;99.90
47382;DHT22;33128;51.580;5.170;2023-02-11T04:35:15;8.00;99.90
47382;DHT22;33128;51.580;5.170;2023-02-11T04:37:41;8.10;99.90
47382;DHT22;33128;51.580;5.170;2023-02-11T04:40:07;8.00;99.90
47382;DHT22;33128;51.580;5.170;2023-02-11T04:42:33;7.90;99.90
47382;DHT22;33128;51.580;5.170;2023-02-11T04:44:58;7.90;99.90
47382;DHT22;33128;51.580;5.170;2023-02-11T04:47:24;8.10;99.90
47382;DHT22;33128;51.580;5.170;2023-02-11T04:49:49;8.00;99.90
47382;DHT22;33128;51.580;5.170;2023-02-11T04:52:15;7.90;99.90
47382;DHT22;33128;51.580;5.170;2023-02-11T04:54:41;8.10;99.90
47382;DHT22;33128;51.580;5.170;2023-02-11T04:57:06;8.10;99.90
47382;DHT22;33128;51.580;5.170;2023-02-11T04:59:35;8.10;99.90
47382;DHT22;33128;51.580;5.170;2023-02-11T05:02:01;8.20;99.90
47382;DHT22;33128;51.580;5.170;2023-02-11T05:04:26;8.20;99.90
47382;DHT22;33128;51.580;5.170;2023-02-11T05:06:52;8.20;99.90
47382;DHT22;33128;51.580;5.170;2023-02-11T05:09:18;8.20;99.90
47382;DHT22;33128;51.580;5.170;2023-02-11T05:11:43;8.10;99.90
47382;DHT22;33128;51.580;5.170;2023-02-11T05:14:09;8.10;99.90
47382;DHT22;33128;51.580;5.170;2023-02-11T05:16:34;8.10;99.90
47382;DHT22;33128;51.580;5.170;2023-02-11T05:19:00;8.00;99.90
47382;DHT22;33128;51.580;5.170;2023-02-11T05:21:26;7.90;99.90
47382;DHT22;33128;51.580;5.170;2023-02-11T05:23:51;8.10;99.90
47382;DHT22;33128;51.580;5.170;2023-02-11T05:26:17;8.20;99.90
47382;DHT22;33128;51.580;5.170;2023-02-11T05:28:43;8.00;99.90
47382;DHT22;33128;51.580;5.170;2023-02-11T05:31:09;8.10;99.90
47382;DHT22;33128;51.580;5.170;2023-02-11T05:33:35;8.10;99.90
47382;DHT22;33128;51.580;5.170;2023-02-11T05:36:11;8.00;99.90
47382;DHT22;33128;51.580;5.170;2023-02-11T05:38:37;8.10;99.90
47382;DHT22;33128;51.580;5.170;2023-02-11T05:41:04;7.90;99.90
47382;DHT22;33128;51.580;5.170;2023-02-11T05:43:33;8.00;99.90
47382;DHT22;33128;51.580;5.170;2023-02-11T05:46:05;8.00;99.90
47382;DHT22;33128;51.580;5.170;2023-02-11T05:48:30;8.00;99.90
47382;DHT22;33128;51.580;5.170;2023-02-11T05:50:56;8.00;99.90
47382;DHT22;33128;51.580;5.170;2023-02-11T05:53:25;8.10;99.90
47382;DHT22;33128;51.580;5.170;2023-02-11T05:55:50;8.10;99.90
47382;DHT22;33128;51.580;5.170;2023-02-11T05:58:16;8.10;99.90
47382;DHT22;33128;51.580;5.170;2023-02-11T06:00:41;8.10;99.90
47382;DHT22;33128;51.580;5.170;2023-02-11T06:03:07;8.10;99.90
47382;DHT22;33128;51.580;5.170;2023-02-11T06:05:33;8.10;99.90
47382;DHT22;33128;51.580;5.170;2023-02-11T06:07:58;8.10;99.90
47382;DHT22;33128;51.580;5.170;2023-02-11T06:10:25;8.10;99.90
47382;DHT22;33128;51.580;5.170;2023-02-11T06:12:51;8.10;99.90
47382;DHT22;33128;51.580;5.170;2023-02-11T06:15:16;8.20;99.90
47382;DHT22;33128;51.580;5.170;2023-02-11T06:17:42;8.20;99.90
47382;DHT22;33128;51.580;5.170;2023-02-11T06:20:09;8.20;99.90
47382;DHT22;33128;51.580;5.170;2023-02-11T06:22:35;8.50;99.90
47382;DHT22;33128;51.580;5.170;2023-02-11T06:25:00;8.50;99.90
47382;DHT22;33128;51.580;5.170;2023-02-11T06:27:26;8.50;99.90
47382;DHT22;33128;51.580;5.170;2023-02-11T06:29:54;8.50;99.90
47382;DHT22;33128;51.580;5.170;2023-02-11T06:32:20;8.40;99.90
47382;DHT22;33128;51.580;5.170;2023-02-11T06:34:46;8.50;99.90
47382;DHT22;33128;51.580;5.170;2023-02-11T06:37:12;8.50;99.90
47382;DHT22;33128;51.580;5.170;2023-02-11T06:39:37;8.50;99.90
47382;DHT22;33128;51.580;5.170;2023-02-11T06:42:03;8.60;99.90
47382;DHT22;33128;51.580;5.170;2023-02-11T06:44:29;8.40;99.90
47382;DHT22;33128;51.580;5.170;2023-02-11T06:46:54;8.70;99.90
47382;DHT22;33128;51.580;5.170;2023-02-11T06:49:20;8.70;99.90
47382;DHT22;33128;51.580;5.170;2023-02-11T06:51:45;8.50;99.90
47382;DHT22;33128;51.580;5.170;2023-02-11T06:54:11;8.50;99.90
47382;DHT22;33128;51.580;5.170;2023-02-11T06:56:40;8.40;99.90
47382;DHT22;33128;51.580;5.170;2023-02-11T06:59:06;8.60;99.90
47382;DHT22;33128;51.580;5.170;2023-02-11T07:01:32;8.60;99.90
47382;DHT22;33128;51.580;5.170;2023-02-11T07:03:57;8.40;99.90
47382;DHT22;33128;51.580;5.170;2023-02-11T07:06:25;8.60;99.90
47382;DHT22;33128;51.580;5.170;2023-02-11T07:08:55;8.50;99.90
47382;DHT22;33128;51.580;5.170;2023-02-11T07:11:24;8.50;99.90
47382;DHT22;33128;51.580;5.170;2023-02-11T07:13:50;8.50;99.90
47382;DHT22;33128;51.580;5.170;2023-02-11T07:16:17;8.60;99.90
47382;DHT22;33128;51.580;5.170;2023-02-11T07:18:44;8.40;99.90
47382;DHT22;33128;51.580;5.170;2023-02-11T07:21:15;8.60;99.90
47382;DHT22;33128;51.580;5.170;2023-02-11T07:23:41;8.80;99.90
47382;DHT22;33128;51.580;5.170;2023-02-11T07:26:10;10.50;99.90
47382;DHT22;33128;51.580;5.170;2023-02-11T07:28:37;11.40;99.90
47382;DHT22;33128;51.580;5.170;2023-02-11T07:31:23;11.70;99.90
47382;DHT22;33128;51.580;5.170;2023-02-11T07:33:54;11.80;99.90
47382;DHT22;33128;51.580;5.170;2023-02-11T07:36:21;11.90;99.90
47382;DHT22;33128;51.580;5.170;2023-02-11T07:38:48;12.10;99.90
47382;DHT22;33128;51.580;5.170;2023-02-11T07:41:16;12.20;99.90
47382;DHT22;33128;51.580;5.170;2023-02-11T07:43:43;12.30;99.90
47382;DHT22;33128;51.580;5.170;2023-02-11T07:46:20;12.40;99.90
47382;DHT22;33128;51.580;5.170;2023-02-11T07:48:46;12.50;99.90
47382;DHT22;33128;51.580;5.170;2023-02-11T07:51:15;12.50;99.90
47382;DHT22;33128;51.580;5.170;2023-02-11T07:53:41;12.50;99.90
47382;DHT22;33128;51.580;5.170;2023-02-11T07:56:08;12.60;99.90
47382;DHT22;33128;51.580;5.170;2023-02-11T07:58:34;12.50;99.90
47382;DHT22;33128;51.580;5.170;2023-02-11T08:01:01;12.60;99.90
47382;DHT22;33128;51.580;5.170;2023-02-11T08:03:27;12.60;99.90
47382;DHT22;33128;51.580;5.170;2023-02-11T08:05:52;12.50;99.90
47382;DHT22;33128;51.580;5.170;2023-02-11T08:08:18;12.50;99.90
47382;DHT22;33128;51.580;5.170;2023-02-11T08:10:43;12.50;99.90
47382;DHT22;33128;51.580;5.170;2023-02-11T08:13:09;12.50;99.90
47382;DHT22;33128;51.580;5.170;2023-02-11T08:15:35;12.60;99.90
47382;DHT22;33128;51.580;5.170;2023-02-11T08:18:03;12.60;99.90
47382;DHT22;33128;51.580;5.170;2023-02-11T08:20:29;12.60;99.90
47382;DHT22;33128;51.580;5.170;2023-02-11T08:22:54;12.70;99.90
47382;DHT22;33128;51.580;5.170;2023-02-11T08:25:20;12.70;99.90
47382;DHT22;33128;51.580;5.170;2023-02-11T08:27:45;12.70;99.90
47382;DHT22;33128;51.580;5.170;2023-02-11T08:30:11;12.70;99.90
47382;DHT22;33128;51.580;5.170;2023-02-11T08:32:37;12.80;99.90
47382;DHT22;33128;51.580;5.170;2023-02-11T08:35:04;12.80;99.90
47382;DHT22;33128;51.580;5.170;2023-02-11T08:37:35;12.80;99.90
47382;DHT22;33128;51.580;5.170;2023-02-11T08:40:00;12.80;99.90
47382;DHT22;33128;51.580;5.170;2023-02-11T08:42:26;12.80;99.90
47382;DHT22;33128;51.580;5.170;2023-02-11T08:44:51;12.80;99.90
47382;DHT22;33128;51.580;5.170;2023-02-11T08:47:17;12.80;99.90
47382;DHT22;33128;51.580;5.170;2023-02-11T08:49:42;12.80;99.90
47382;DHT22;33128;51.580;5.170;2023-02-11T08:52:08;12.80;99.90
47382;DHT22;33128;51.580;5.170;2023-02-11T08:54:34;12.80;99.90
47382;DHT22;33128;51.580;5.170;2023-02-11T08:56:59;12.80;99.90
47382;DHT22;33128;51.580;5.170;2023-02-11T08:59:26;12.80;99.90
47382;DHT22;33128;51.580;5.170;2023-02-11T09:01:52;12.80;99.90
47382;DHT22;33128;51.580;5.170;2023-02-11T09:04:17;12.80;99.90
47382;DHT22;33128;51.580;5.170;2023-02-11T09:06:43;12.80;99.90
47382;DHT22;33128;51.580;5.170;2023-02-11T09:09:12;12.90;99.90
47382;DHT22;33128;51.580;5.170;2023-02-11T09:11:38;12.90;99.90
47382;DHT22;33128;51.580;5.170;2023-02-11T09:14:05;12.80;99.90
47382;DHT22;33128;51.580;5.170;2023-02-11T09:16:33;12.90;99.90
47382;DHT22;33128;51.580;5.170;2023-02-11T09:19:01;12.90;99.90
47382;DHT22;33128;51.580;5.170;2023-02-11T09:21:28;12.90;99.90
47382;DHT22;33128;51.580;5.170;2023-02-11T09:23:53;12.90;99.90
47382;DHT22;33128;51.580;5.170;2023-02-11T09:26:25;12.90;99.90
47382;DHT22;33128;51.580;5.170;2023-02-11T09:28:51;12.90;99.90
47382;DHT22;33128;51.580;5.170;2023-02-11T09:31:23;12.90;99.90
47382;DHT22;33128;51.580;5.170;2023-02-11T09:33:51;12.90;99.90
47382;DHT22;33128;51.580;5.170;2023-02-11T09:36:20;12.90;99.90
47382;DHT22;33128;51.580;5.170;2023-02-11T09:38:46;13.00;99.90
47382;DHT22;33128;51.580;5.170;2023-02-11T09:43:56;13.10;99.90
47382;DHT22;33128;51.580;5.170;2023-02-11T09:46:24;13.00;99.90
47382;DHT22;33128;51.580;5.170;2023-02-11T09:48:54;13.00;99.90
47382;DHT22;33128;51.580;5.170;2023-02-11T09:51:47;13.00;99.90
47382;DHT22;33128;51.580;5.170;2023-02-11T09:54:27;13.00;99.90
47382;DHT22;33128;51.580;5.170;2023-02-11T09:56:55;13.10;99.90
47382;DHT22;33128;51.580;5.170;2023-02-11T09:59:20;13.10;99.90
47382;DHT22;33128;51.580;5.170;2023-02-11T10:01:49;13.10;99.90
47382;DHT22;33128;51.580;5.170;2023-02-11T10:05:14;13.10;99.90
47382;DHT22;33128;51.580;5.170;2023-02-11T10:07:53;13.20;99.90
47382;DHT22;33128;51.580;5.170;2023-02-11T10:10:43;13.20;99.90
47382;DHT22;33128;51.580;5.170;2023-02-11T10:23:53;13.20;99.90
47382;DHT22;33128;51.580;5.170;2023-02-11T10:26:21;13.20;99.90
47382;DHT22;33128;51.580;5.170;2023-02-11T10:28:50;13.30;99.90
47382;DHT22;33128;51.580;5.170;2023-02-11T10:31:26;13.40;99.90
47382;DHT22;33128;51.580;5.170;2023-02-11T10:36:20;13.50;99.90
47382;DHT22;33128;51.580;5.170;2023-02-11T10:38:48;13.50;99.90
47382;DHT22;33128;51.580;5.170;2023-02-11T10:41:20;13.60;99.90
47382;DHT22;33128;51.580;5.170;2023-02-11T10:43:47;13.60;99.90
47382;DHT22;33128;51.580;5.170;2023-02-11T10:46:17;13.60;99.90
47382;DHT22;33128;51.580;5.170;2023-02-11T10:48:51;13.60;99.90
47382;DHT22;33128;51.580;5.170;2023-02-11T10:51:21;13.60;99.90
47382;DHT22;33128;51.580;5.170;2023-02-11T10:56:31;13.60;99.90
47382;DHT22;33128;51.580;5.170;2023-02-11T11:01:58;13.60;99.90
47382;DHT22;33128;51.580;5.170;2023-02-11T11:10:06;13.60;99.90
47382;DHT22;33128;51.580;5.170;2023-02-11T11:17:36;13.60;99.90
47382;DHT22;33128;51.580;5.170;2023-02-11T11:20:26;13.70;99.90
47382;DHT22;33128;51.580;5.170;2023-02-11T11:23:16;13.70;99.90
47382;DHT22;33128;51.580;5.170;2023-02-11T11:25:45;13.70;99.90
47382;DHT22;33128;51.580;5.170;2023-02-11T11:28:25;13.70;99.90
47382;DHT22;33128;51.580;5.170;2023-02-11T11:30:57;13.80;99.90
47382;DHT22;33128;51.580;5.170;2023-02-11T11:33:32;13.90;99.90
47382;DHT22;33128;51.580;5.170;2023-02-11T11:36:06;13.90;99.90
47382;DHT22;33128;51.580;5.170;2023-02-11T11:38:36;14.00;99.90
47382;DHT22;33128;51.580;5.170;2023-02-11T11:41:19;14.00;99.90
47382;DHT22;33128;51.580;5.170;2023-02-11T11:44:24;14.10;99.90
47382;DHT22;33128;51.580;5.170;2023-02-11T11:50:05;14.20;99.90
47382;DHT22;33128;51.580;5.170;2023-02-11T11:55:30;14.10;99.90
47382;DHT22;33128;51.580;5.170;2023-02-11T11:57:56;14.10;99.90
47382;DHT22;33128;51.580;5.170;2023-02-11T12:00:47;14.20;99.90
47382;DHT22;33128;51.580;5.170;2023-02-11T12:03:31;14.20;99.90
47382;DHT22;33128;51.580;5.170;2023-02-11T12:09:25;14.20;99.90
47382;DHT22;33128;51.580;5.170;2023-02-11T12:12:14;14.20;99.90
47382;DHT22;33128;51.580;5.170;2023-02-11T12:14:58;14.30;99.90
47382;DHT22;33128;51.580;5.170;2023-02-11T12:18:01;14.30;99.90
47382;DHT22;33128;51.580;5.170;2023-02-11T12:26:30;14.50;99.90
47382;DHT22;33128;51.580;5.170;2023-02-11T12:37:31;14.50;99.90
47382;DHT22;33128;51.580;5.170;2023-02-11T12:43:04;14.50;99.90
47382;DHT22;33128;51.580;5.170;2023-02-11T12:51:48;14.60;99.90
47382;DHT22;33128;51.580;5.170;2023-02-11T12:55:21;14.70;99.90
47382;DHT22;33128;51.580;5.170;2023-02-11T12:57:25;14.70;99.90
47382;DHT22;33128;51.580;5.170;2023-02-11T13:00:03;14.90;99.90
47382;DHT22;33128;51.580;5.170;2023-02-11T13:02:47;15.00;99.90
47382;DHT22;33128;51.580;5.170;2023-02-11T13:07:54;15.20;99.90
47382;DHT22;33128;51.580;5.170;2023-02-11T13:10:39;15.20;99.90
47382;DHT22;33128;51.580;5.170;2023-02-11T13:13:20;15.40;99.90
47382;DHT22;33128;51.580;5.170;2023-02-11T13:16:02;15.40;99.90
47382;DHT22;33128;51.580;5.170;2023-02-11T13:21:37;15.40;99.90
47382;DHT22;33128;51.580;5.170;2023-02-11T13:24:33;15.50;99.90
47382;DHT22;33128;51.580;5.170;2023-02-11T13:27:52;15.50;99.90
47382;DHT22;33128;51.580;5.170;2023-02-11T13:30:17;15.60;99.90
47382;DHT22;33128;51.580;5.170;2023-02-11T13:35:45;15.30;99.90
47382;DHT22;33128;51.580;5.170;2023-02-11T13:38:25;15.10;99.90
47382;DHT22;33128;51.580;5.170;2023-02-11T13:41:18;15.00;99.90
47382;DHT22;33128;51.580;5.170;2023-02-11T13:43:58;14.90;99.90
47382;DHT22;33128;51.580;5.170;2023-02-11T13:46:25;14.90;99.90
47382;DHT22;33128;51.580;5.170;2023-02-11T13:48:53;14.80;99.90
47382;DHT22;33128;51.580;5.170;2023-02-11T13:51:36;14.90;99.90
47382;DHT22;33128;51.580;5.170;2023-02-11T13:54:03;14.90;99.90
47382;DHT22;33128;51.580;5.170;2023-02-11T13:56:37;14.90;99.90
47382;DHT22;33128;51.580;5.170;2023-02-11T13:59:05;14.90;99.90
47382;DHT22;33128;51.580;5.170;2023-02-11T14:08:21;14.80;99.90
47382;DHT22;33128;51.580;5.170;2023-02-11T14:16:23;14.70;99.90
47382;DHT22;33128;51.580;5.170;2023-02-11T14:23:53;14.70;99.90
47382;DHT22;33128;51.580;5.170;2023-02-11T14:29:12;14.70;99.90
47382;DHT22;33128;51.580;5.170;2023-02-11T14:42:50;14.60;99.90
47382;DHT22;33128;51.580;5.170;2023-02-11T14:45:24;14.60;99.90
47382;DHT22;33128;51.580;5.170;2023-02-11T14:47:59;14.60;99.90
47382;DHT22;33128;51.580;5.170;2023-02-11T14:50:43;14.60;99.90
47382;DHT22;33128;51.580;5.170;2023-02-11T14:53:14;14.60;99.90
47382;DHT22;33128;51.580;5.170;2023-02-11T14:55:42;14.60;99.90
47382;DHT22;33128;51.580;5.170;2023-02-11T14:58:17;14.60;99.90
47382;DHT22;33128;51.580;5.170;2023-02-11T15:01:34;14.50;99.90
47382;DHT22;33128;51.580;5.170;2023-02-11T15:03:39;14.50;99.90
47382;DHT22;33128;51.580;5.170;2023-02-11T15:08:36;14.50;99.90
47382;DHT22;33128;51.580;5.170;2023-02-11T15:11:08;14.50;99.90
47382;DHT22;33128;51.580;5.170;2023-02-11T15:13:34;14.40;99.90
47382;DHT22;33128;51.580;5.170;2023-02-11T15:16:05;14.40;99.90
47382;DHT22;33128;51.580;5.170;2023-02-11T15:18:36;14.40;99.90
47382;DHT22;33128;51.580;5.170;2023-02-11T15:21:03;14.40;99.90
47382;DHT22;33128;51.580;5.170;2023-02-11T15:23:33;14.40;99.90
47382;DHT22;33128;51.580;5.170;2023-02-11T15:25:59;14.30;99.90
47382;DHT22;33128;51.580;5.170;2023-02-11T15:28:33;14.30;99.90
47382;DHT22;33128;51.580;5.170;2023-02-11T15:31:15;14.30;99.90
47382;DHT22;33128;51.580;5.170;2023-02-11T15:33:41;14.30;99.90
47382;DHT22;33128;51.580;5.170;2023-02-11T15:36:11;14.30;99.90
47382;DHT22;33128;51.580;5.170;2023-02-11T15:38:38;14.30;99.90
47382;DHT22;33128;51.580;5.170;2023-02-11T15:41:05;14.30;99.90
47382;DHT22;33128;51.580;5.170;2023-02-11T15:43:46;14.30;99.90
47382;DHT22;33128;51.580;5.170;2023-02-11T15:46:20;14.30;99.90
47382;DHT22;33128;51.580;5.170;2023-02-11T15:48:50;14.30;99.90
47382;DHT22;33128;51.580;5.170;2023-02-11T15:51:36;14.30;99.90
47382;DHT22;33128;51.580;5.170;2023-02-11T15:54:07;14.30;99.90
47382;DHT22;33128;51.580;5.170;2023-02-11T15:56:41;14.20;99.90
47382;DHT22;33128;51.580;5.170;2023-02-11T15:59:38;14.20;99.90
47382;DHT22;33128;51.580;5.170;2023-02-11T16:02:17;14.20;99.90
47382;DHT22;33128;51.580;5.170;2023-02-11T16:04:52;14.30;99.90
47382;DHT22;33128;51.580;5.170;2023-02-11T16:07:44;14.20;99.90
47382;DHT22;33128;51.580;5.170;2023-02-11T16:10:31;14.20;99.90
47382;DHT22;33128;51.580;5.170;2023-02-11T16:15:41;14.20;99.90
47382;DHT22;33128;51.580;5.170;2023-02-11T16:20:50;14.10;99.90
47382;DHT22;33128;51.580;5.170;2023-02-11T16:23:21;14.10;99.90
47382;DHT22;33128;51.580;5.170;2023-02-11T16:25:48;14.10;99.90
47382;DHT22;33128;51.580;5.170;2023-02-11T16:28:15;14.10;99.90
47382;DHT22;33128;51.580;5.170;2023-02-11T16:30:41;14.10;99.90
47382;DHT22;33128;51.580;5.170;2023-02-11T16:33:10;14.10;99.90
47382;DHT22;33128;51.580;5.170;2023-02-11T16:35:35;14.10;99.90
47382;DHT22;33128;51.580;5.170;2023-02-11T16:38:02;14.10;99.90
47382;DHT22;33128;51.580;5.170;2023-02-11T16:40:27;14.10;99.90
47382;DHT22;33128;51.580;5.170;2023-02-11T16:42:56;14.10;99.90
47382;DHT22;33128;51.580;5.170;2023-02-11T16:45:24;14.10;99.90
47382;DHT22;33128;51.580;5.170;2023-02-11T16:47:51;14.10;99.90
47382;DHT22;33128;51.580;5.170;2023-02-11T16:50:21;14.10;99.90
47382;DHT22;33128;51.580;5.170;2023-02-11T16:52:47;14.10;99.90
47382;DHT22;33128;51.580;5.170;2023-02-11T16:55:13;14.00;99.90
47382;DHT22;33128;51.580;5.170;2023-02-11T16:57:39;14.00;99.90
47382;DHT22;33128;51.580;5.170;2023-02-11T17:00:08;14.00;99.90
47382;DHT22;33128;51.580;5.170;2023-02-11T17:02:36;14.10;99.90
47382;DHT22;33128;51.580;5.170;2023-02-11T17:05:07;14.00;99.90
47382;DHT22;33128;51.580;5.170;2023-02-11T17:07:39;14.10;99.90
47382;DHT22;33128;51.580;5.170;2023-02-11T17:10:13;14.10;99.90
47382;DHT22;33128;51.580;5.170;2023-02-11T17:12:39;14.10;99.90
47382;DHT22;33128;51.580;5.170;2023-02-11T17:15:05;14.10;99.90
47382;DHT22;33128;51.580;5.170;2023-02-11T17:17:30;14.10;99.90
47382;DHT22;33128;51.580;5.170;2023-02-11T17:19:56;14.10;99.90
47382;DHT22;33128;51.580;5.170;2023-02-11T17:22:21;14.10;99.90
47382;DHT22;33128;51.580;5.170;2023-02-11T17:24:47;14.20;99.90
47382;DHT22;33128;51.580;5.170;2023-02-11T17:27:13;14.10;99.90
47382;DHT22;33128;51.580;5.170;2023-02-11T17:29:39;14.10;99.90
47382;DHT22;33128;51.580;5.170;2023-02-11T17:32:05;14.10;99.90
47382;DHT22;33128;51.580;5.170;2023-02-11T17:34:31;14.10;99.90
47382;DHT22;33128;51.580;5.170;2023-02-11T17:36:56;14.10;99.90
47382;DHT22;33128;51.580;5.170;2023-02-11T17:39:27;14.10;99.90
47382;DHT22;33128;51.580;5.170;2023-02-11T17:41:52;14.10;99.90
47382;DHT22;33128;51.580;5.170;2023-02-11T17:44:18;14.10;99.90
47382;DHT22;33128;51.580;5.170;2023-02-11T17:46:43;14.10;99.90
47382;DHT22;33128;51.580;5.170;2023-02-11T17:49:10;14.10;99.90
47382;DHT22;33128;51.580;5.170;2023-02-11T17:51:37;14.10;99.90
47382;DHT22;33128;51.580;5.170;2023-02-11T17:54:12;14.10;99.90
47382;DHT22;33128;51.580;5.170;2023-02-11T17:56:38;14.10;99.90
47382;DHT22;33128;51.580;5.170;2023-02-11T17:59:05;14.10;99.90
47382;DHT22;33128;51.580;5.170;2023-02-11T18:01:33;14.00;99.90
47382;DHT22;33128;51.580;5.170;2023-02-11T18:03:59;14.10;99.90
47382;DHT22;33128;51.580;5.170;2023-02-11T18:06:25;14.00;99.90
47382;DHT22;33128;51.580;5.170;2023-02-11T18:08:50;14.10;99.90
47382;DHT22;33128;51.580;5.170;2023-02-11T18:11:16;14.10;99.90
47382;DHT22;33128;51.580;5.170;2023-02-11T18:13:43;14.10;99.90
47382;DHT22;33128;51.580;5.170;2023-02-11T18:16:10;14.00;99.90
47382;DHT22;33128;51.580;5.170;2023-02-11T18:18:40;14.10;99.90
47382;DHT22;33128;51.580;5.170;2023-02-11T18:21:06;14.10;99.90
47382;DHT22;33128;51.580;5.170;2023-02-11T18:23:33;14.00;99.90
47382;DHT22;33128;51.580;5.170;2023-02-11T18:25:59;14.00;99.90